createdAt,value
2023-05-14T00:01:44.046Z,3.75
2023-05-14T00:04:10.531Z,4.10
2023-05-14T00:06:36.915Z,4.65
2023-05-14T00:09:04.254Z,4.30
2023-05-14T00:11:30.659Z,3.95
2023-05-14T00:13:57.116Z,4.53
2023-05-14T00:16:23.529Z,4.65
2023-05-14T00:18:49.966Z,4.05
2023-05-14T00:21:17.062Z,4.22
2023-05-14T00:23:43.409Z,4.20
2023-05-14T00:26:09.967Z,4.28
2023-05-14T00:28:37.984Z,3.95
2023-05-14T00:31:04.755Z,4.10
2023-05-14T00:33:31.200Z,3.70
2023-05-14T00:35:57.616Z,4.03
2023-05-14T00:38:27.506Z,4.28
2023-05-14T00:40:54.024Z,3.88
2023-05-14T00:43:21.596Z,4.28
2023-05-14T00:45:51.007Z,4.55
2023-05-14T00:48:17.974Z,4.50
2023-05-14T00:50:44.471Z,3.85
2023-05-14T00:53:11.581Z,4.68
2023-05-14T00:55:38.528Z,3.90
2023-05-14T00:58:11.600Z,4.55
2023-05-14T01:00:38.785Z,3.97
2023-05-14T01:03:07.447Z,3.85
2023-05-14T01:05:45.868Z,4.28
2023-05-14T01:08:25.220Z,4.20
2023-05-14T01:10:56.284Z,4.15
2023-05-14T01:13:54.835Z,4.10
2023-05-14T01:16:25.259Z,4.53
2023-05-14T01:18:54.332Z,4.32
2023-05-14T01:21:37.860Z,4.15
2023-05-14T01:26:31.421Z,4.75
2023-05-14T01:29:19.830Z,3.63
2023-05-14T01:31:48.750Z,4.05
2023-05-14T01:34:16.072Z,3.85
2023-05-14T01:36:43.616Z,4.63
2023-05-14T01:39:11.904Z,3.63
2023-05-14T01:41:39.307Z,4.03
2023-05-14T01:44:06.035Z,4.15
2023-05-14T01:46:33.172Z,4.07
2023-05-14T01:49:00.176Z,4.03
2023-05-14T01:51:26.752Z,4.65
2023-05-14T01:53:53.211Z,3.80
2023-05-14T01:56:21.691Z,3.88
2023-05-14T01:58:48.110Z,3.92
2023-05-14T02:01:14.716Z,3.88
2023-05-14T02:03:41.234Z,4.18
2023-05-14T02:06:07.680Z,3.55
2023-05-14T02:08:34.098Z,4.45
2023-05-14T02:11:00.740Z,3.90
2023-05-14T02:13:27.159Z,3.70
2023-05-14T02:15:53.576Z,3.67
2023-05-14T02:18:20.062Z,3.50
2023-05-14T02:20:46.647Z,4.15
2023-05-14T02:23:13.063Z,2.85
2023-05-14T02:25:39.463Z,4.28
2023-05-14T02:28:05.929Z,4.32
2023-05-14T02:30:32.338Z,3.80
2023-05-14T02:32:58.850Z,3.20
2023-05-14T02:35:25.508Z,4.20
2023-05-14T02:37:51.934Z,3.80
2023-05-14T02:40:18.339Z,4.47
2023-05-14T02:42:44.871Z,3.90
2023-05-14T02:45:11.419Z,4.60
2023-05-14T02:47:38.461Z,4.13
2023-05-14T02:50:06.340Z,4.07
2023-05-14T02:52:32.788Z,3.45
2023-05-14T02:54:59.162Z,3.78
2023-05-14T02:57:25.550Z,4.13
2023-05-14T02:59:51.936Z,4.05
2023-05-14T03:02:18.954Z,3.85
2023-05-14T03:04:46.654Z,3.75
2023-05-14T03:07:13.549Z,4.22
2023-05-14T03:09:39.936Z,3.95
2023-05-14T03:12:07.722Z,4.15
2023-05-14T03:14:34.107Z,3.58
2023-05-14T03:17:00.736Z,3.63
2023-05-14T03:19:27.130Z,3.78
2023-05-14T03:21:53.541Z,3.70
2023-05-14T03:24:20.063Z,4.05
2023-05-14T03:26:46.458Z,3.90
2023-05-14T03:29:13.266Z,4.00
2023-05-14T03:31:40.212Z,4.38
2023-05-14T03:34:06.641Z,4.85
2023-05-14T03:36:33.981Z,4.32
2023-05-14T03:39:00.466Z,4.38
2023-05-14T03:41:26.817Z,4.53
2023-05-14T03:43:53.200Z,4.40
2023-05-14T03:46:19.665Z,4.25
2023-05-14T03:48:46.294Z,4.43
2023-05-14T03:51:12.772Z,4.82
2023-05-14T03:53:39.262Z,4.10
2023-05-14T03:56:06.559Z,4.38
2023-05-14T03:58:32.973Z,4.03
2023-05-14T04:01:00.378Z,4.68
2023-05-14T04:03:26.909Z,4.50
2023-05-14T04:05:53.342Z,4.35
2023-05-14T04:08:19.722Z,3.92
2023-05-14T04:10:46.251Z,4.10
2023-05-14T04:13:12.675Z,4.38
2023-05-14T04:15:39.910Z,3.80
2023-05-14T04:18:06.432Z,4.05
2023-05-14T04:20:32.946Z,4.10
2023-05-14T04:22:59.405Z,4.53
2023-05-14T04:25:25.915Z,3.90
2023-05-14T04:27:52.359Z,4.55
2023-05-14T04:30:20.001Z,4.22
2023-05-14T04:32:46.517Z,4.43
2023-05-14T04:35:13.051Z,4.07
2023-05-14T04:37:40.359Z,4.03
2023-05-14T04:40:08.645Z,5.13
2023-05-14T04:42:35.208Z,4.22
2023-05-14T04:45:01.652Z,4.35
2023-05-14T04:47:28.105Z,5.15
2023-05-14T04:49:54.506Z,4.03
2023-05-14T04:52:21.092Z,4.65
2023-05-14T04:54:47.502Z,4.07
2023-05-14T04:57:13.937Z,4.53
2023-05-14T04:59:40.340Z,4.57
2023-05-14T05:02:06.719Z,4.30
2023-05-14T05:04:33.142Z,4.18
2023-05-14T05:06:59.616Z,4.55
2023-05-14T05:09:26.004Z,4.72
2023-05-14T05:11:52.392Z,4.18
2023-05-14T05:14:18.800Z,3.88
2023-05-14T05:16:45.219Z,4.00
2023-05-14T05:19:11.980Z,3.80
2023-05-14T05:21:40.621Z,4.22
2023-05-14T05:24:07.973Z,4.38
2023-05-14T05:26:36.716Z,4.38
2023-05-14T05:29:04.243Z,4.50
2023-05-14T05:31:31.315Z,4.32
2023-05-14T05:33:59.511Z,4.90
2023-05-14T05:36:25.948Z,4.13
2023-05-14T05:38:52.423Z,4.45
2023-05-14T05:41:18.823Z,4.97
2023-05-14T05:43:45.195Z,4.55
2023-05-14T05:46:12.115Z,5.13
2023-05-14T05:48:38.529Z,5.10
2023-05-14T05:51:05.025Z,4.47
2023-05-14T05:53:31.402Z,4.22
2023-05-14T05:55:57.839Z,4.72
2023-05-14T05:58:24.216Z,4.38
2023-05-14T06:00:50.595Z,5.35
2023-05-14T06:03:17.063Z,7.05
2023-05-14T06:05:43.657Z,5.72
2023-05-14T06:08:10.111Z,5.32
2023-05-14T06:10:37.401Z,6.18
2023-05-14T06:13:03.851Z,7.32
2023-05-14T06:15:30.328Z,6.45
2023-05-14T06:17:56.809Z,7.68
2023-05-14T06:20:23.533Z,8.27
2023-05-14T06:22:50.121Z,7.88
2023-05-14T06:25:16.645Z,8.23
2023-05-14T06:27:43.056Z,8.00
2023-05-14T06:30:11.170Z,7.72
2023-05-14T06:32:37.666Z,7.55
2023-05-14T06:35:04.426Z,6.25
2023-05-14T06:37:30.787Z,5.53
2023-05-14T06:39:58.062Z,4.38
2023-05-14T06:42:24.566Z,4.13
2023-05-14T06:44:50.939Z,5.30
2023-05-14T06:47:17.313Z,4.45
2023-05-14T06:49:43.728Z,4.95
2023-05-14T06:52:10.160Z,4.57
2023-05-14T06:54:36.586Z,4.40
2023-05-14T06:57:03.217Z,4.85
2023-05-14T06:59:29.602Z,4.13
2023-05-14T07:01:56.012Z,4.95
2023-05-14T07:04:22.557Z,4.82
2023-05-14T07:06:49.055Z,4.82
2023-05-14T07:09:16.371Z,4.20
2023-05-14T07:11:42.742Z,4.70
2023-05-14T07:14:09.116Z,4.93
2023-05-14T07:16:35.919Z,5.13
2023-05-14T07:19:02.381Z,4.68
2023-05-14T07:21:28.931Z,4.90
2023-05-14T07:23:55.322Z,4.75
2023-05-14T07:26:24.199Z,4.57
2023-05-14T07:28:50.592Z,4.78
2023-05-14T07:31:16.985Z,4.78
2023-05-14T07:33:43.769Z,4.30
2023-05-14T07:36:10.478Z,4.30
2023-05-14T07:38:37.144Z,5.35
2023-05-14T07:41:03.768Z,4.38
2023-05-14T07:43:30.214Z,4.18
2023-05-14T07:45:56.648Z,3.80
2023-05-14T07:48:23.111Z,4.47
2023-05-14T07:50:50.122Z,4.93
2023-05-14T07:53:17.971Z,4.15
2023-05-14T07:55:48.524Z,3.97
2023-05-14T07:58:16.711Z,4.55
2023-05-14T08:00:43.403Z,4.57
2023-05-14T08:03:10.582Z,4.70
2023-05-14T08:05:37.841Z,4.28
2023-05-14T08:08:05.141Z,4.70
2023-05-14T08:10:32.336Z,4.75
2023-05-14T08:12:59.418Z,3.75
2023-05-14T08:15:28.112Z,4.32
2023-05-14T08:17:56.634Z,7.00
2023-05-14T08:20:25.702Z,5.82
2023-05-14T08:22:52.689Z,5.07
2023-05-14T08:25:19.070Z,4.13
2023-05-14T08:27:45.532Z,4.35
2023-05-14T08:30:12.199Z,4.13
2023-05-14T08:32:39.233Z,3.85
2023-05-14T08:35:06.688Z,4.18
2023-05-14T08:37:33.141Z,3.80
2023-05-14T08:39:59.806Z,3.60
2023-05-14T08:42:26.843Z,3.78
2023-05-14T08:44:58.076Z,4.35
2023-05-14T08:47:25.391Z,3.78
2023-05-14T08:50:08.189Z,4.13
2023-05-14T08:52:35.385Z,4.20
2023-05-14T08:55:06.177Z,3.60
2023-05-14T08:57:33.679Z,3.50
2023-05-14T09:00:00.812Z,3.22
2023-05-14T09:02:31.484Z,4.40
2023-05-14T09:04:59.801Z,3.67
2023-05-14T09:07:26.671Z,3.83
2023-05-14T09:09:53.872Z,3.90
2023-05-14T09:12:21.389Z,3.67
2023-05-14T09:14:49.371Z,3.65
2023-05-14T09:17:16.569Z,4.07
2023-05-14T09:19:47.168Z,3.65
2023-05-14T09:22:15.201Z,3.70
2023-05-14T09:24:42.094Z,4.32
2023-05-14T09:27:10.902Z,4.53
2023-05-14T09:29:37.341Z,4.13
2023-05-14T09:32:05.491Z,3.38
2023-05-14T09:34:37.741Z,4.00
2023-05-14T09:37:05.977Z,3.83
2023-05-14T09:39:34.145Z,3.22
2023-05-14T09:42:01.104Z,4.13
2023-05-14T09:44:27.866Z,4.00
2023-05-14T09:46:54.939Z,3.88
2023-05-14T09:49:22.253Z,3.78
2023-05-14T09:51:49.894Z,3.42
2023-05-14T09:54:16.647Z,3.58
2023-05-14T09:56:43.978Z,3.67
2023-05-14T09:59:10.868Z,3.40
2023-05-14T10:01:37.899Z,3.50
2023-05-14T10:04:07.397Z,3.33
2023-05-14T10:06:37.306Z,3.13
2023-05-14T10:09:08.369Z,3.83
2023-05-14T10:11:38.071Z,3.42
2023-05-14T10:14:08.515Z,3.58
2023-05-14T10:16:38.124Z,3.95
2023-05-14T10:19:08.613Z,3.38
2023-05-14T10:21:37.157Z,2.88
2023-05-14T10:24:05.260Z,3.17
2023-05-14T10:26:33.296Z,2.90
2023-05-14T10:28:59.965Z,3.05
2023-05-14T10:31:50.198Z,3.10
2023-05-14T10:34:40.942Z,3.13
2023-05-14T10:37:25.389Z,3.17
2023-05-14T10:39:54.290Z,3.42
2023-05-14T10:42:27.395Z,2.53
2023-05-14T10:45:01.449Z,3.38
2023-05-14T10:47:28.882Z,3.17
2023-05-14T10:49:57.688Z,3.13
2023-05-14T10:52:25.410Z,2.55
2023-05-14T10:55:01.957Z,2.85
2023-05-14T10:57:35.489Z,2.90
2023-05-14T11:00:09.520Z,3.20
2023-05-14T11:02:45.575Z,2.80
2023-05-14T11:05:16.719Z,2.50
2023-05-14T11:07:45.792Z,2.80
2023-05-14T11:10:14.338Z,2.55
2023-05-14T11:12:42.957Z,2.63
2023-05-14T11:15:11.617Z,2.33
2023-05-14T11:17:40.434Z,2.47
2023-05-14T11:20:08.186Z,2.40
2023-05-14T11:22:36.112Z,2.45
2023-05-14T11:25:03.739Z,2.90
2023-05-14T11:27:32.330Z,2.83
2023-05-14T11:30:01.144Z,2.65
2023-05-14T11:32:28.054Z,2.80
2023-05-14T11:34:55.695Z,2.55
2023-05-14T11:37:24.442Z,3.10
2023-05-14T11:39:58.514Z,2.35
2023-05-14T11:42:25.696Z,2.92
2023-05-14T11:44:53.870Z,2.55
2023-05-14T11:47:21.573Z,2.83
2023-05-14T11:49:48.968Z,2.40
2023-05-14T11:52:19.088Z,3.20
2023-05-14T11:54:45.661Z,2.92
2023-05-14T11:57:22.347Z,2.83
2023-05-14T11:59:55.505Z,2.55
2023-05-14T12:02:22.893Z,2.72
2023-05-14T12:04:52.138Z,2.45
2023-05-14T12:07:18.670Z,2.45
2023-05-14T12:09:50.058Z,2.47
2023-05-14T12:12:22.869Z,2.63
2023-05-14T12:14:50.252Z,2.70
2023-05-14T12:17:18.792Z,2.67
2023-05-14T12:19:47.452Z,2.85
2023-05-14T12:22:16.780Z,3.25
2023-05-14T12:24:44.974Z,2.58
2023-05-14T12:27:12.787Z,2.55
2023-05-14T12:29:43.869Z,2.83
2023-05-14T12:32:10.927Z,2.20
2023-05-14T12:34:38.340Z,2.53
2023-05-14T12:37:06.510Z,2.67
2023-05-14T12:39:34.592Z,3.63
2023-05-14T12:42:01.531Z,2.58
2023-05-14T12:44:28.515Z,2.58
2023-05-14T12:46:55.402Z,2.75
2023-05-14T12:49:21.838Z,2.30
2023-05-14T12:51:48.296Z,2.55
2023-05-14T12:54:15.876Z,2.15
2023-05-14T12:56:42.893Z,2.20
2023-05-14T12:59:09.462Z,2.15
2023-05-14T13:01:37.718Z,2.88
2023-05-14T13:04:05.514Z,2.30
2023-05-14T13:06:32.759Z,2.25
2023-05-14T13:09:01.650Z,2.55
2023-05-14T13:11:30.235Z,2.30
2023-05-14T13:13:56.633Z,1.80
2023-05-14T13:16:23.072Z,2.33
2023-05-14T13:18:49.556Z,2.15
2023-05-14T13:21:16.059Z,1.73
2023-05-14T13:23:43.065Z,2.88
2023-05-14T13:26:09.786Z,2.13
2023-05-14T13:28:36.187Z,2.38
2023-05-14T13:31:11.218Z,2.42
2023-05-14T13:33:41.814Z,2.67
2023-05-14T13:36:09.308Z,2.60
2023-05-14T13:38:35.745Z,2.70
2023-05-14T13:41:02.553Z,2.63
2023-05-14T13:43:34.718Z,2.33
2023-05-14T13:46:03.259Z,2.60
2023-05-14T13:48:30.923Z,2.90
2023-05-14T13:50:57.334Z,2.15
2023-05-14T13:53:25.388Z,2.03
2023-05-14T13:55:57.963Z,1.90
2023-05-14T13:58:25.248Z,2.10
2023-05-14T14:00:52.804Z,2.10
2023-05-14T14:03:19.456Z,2.20
2023-05-14T14:05:46.106Z,2.00
2023-05-14T14:08:22.475Z,2.13
2023-05-14T14:10:50.559Z,2.53
2023-05-14T14:13:16.923Z,2.20
2023-05-14T14:15:43.658Z,2.40
2023-05-14T14:18:10.223Z,2.55
2023-05-14T14:20:36.725Z,2.30
2023-05-14T14:23:03.565Z,2.92
2023-05-14T14:25:29.997Z,2.60
2023-05-14T14:27:56.543Z,2.30
2023-05-14T14:30:22.976Z,2.30
2023-05-14T14:32:49.867Z,2.20
2023-05-14T14:35:18.101Z,2.50
2023-05-14T14:37:48.883Z,2.40
2023-05-14T14:40:16.656Z,1.80
2023-05-14T14:42:43.224Z,2.40
2023-05-14T14:45:10.200Z,2.30
2023-05-14T14:47:36.668Z,1.90
2023-05-14T14:50:03.292Z,2.50
2023-05-14T14:52:29.858Z,2.05
2023-05-14T14:54:56.415Z,2.63
2023-05-14T14:57:22.897Z,2.15
2023-05-14T14:59:49.404Z,2.58
2023-05-14T15:02:16.145Z,2.17
2023-05-14T15:04:42.840Z,2.20
2023-05-14T15:07:09.366Z,1.95
2023-05-14T15:09:35.864Z,1.63
2023-05-14T15:12:02.224Z,1.70
2023-05-14T15:14:28.737Z,1.90
2023-05-14T15:16:55.239Z,1.67
2023-05-14T15:19:21.872Z,1.50
2023-05-14T15:21:48.256Z,1.73
2023-05-14T15:24:14.646Z,1.52
2023-05-14T15:26:41.109Z,1.73
2023-05-14T15:29:07.693Z,1.60
2023-05-14T15:31:34.599Z,2.10
2023-05-14T15:34:01.119Z,2.05
2023-05-14T15:36:28.419Z,1.60
2023-05-14T15:38:54.830Z,1.80
2023-05-14T15:41:21.384Z,1.98
2023-05-14T15:43:47.797Z,1.77
2023-05-14T15:46:14.215Z,1.95
2023-05-14T15:48:40.608Z,1.45
2023-05-14T15:51:07.655Z,2.38
2023-05-14T15:53:34.126Z,1.98
2023-05-14T15:56:00.546Z,1.60
2023-05-14T15:58:26.944Z,1.80
2023-05-14T16:00:53.351Z,1.70
2023-05-14T16:03:19.846Z,1.65
2023-05-14T16:05:46.752Z,1.50
2023-05-14T16:08:13.155Z,1.67
2023-05-14T16:10:39.524Z,1.60
2023-05-14T16:13:05.913Z,1.90
2023-05-14T16:15:32.345Z,2.38
2023-05-14T16:18:00.098Z,2.30
2023-05-14T16:20:26.635Z,1.92
2023-05-14T16:22:53.020Z,1.90
2023-05-14T16:25:19.464Z,2.33
2023-05-14T16:27:46.148Z,1.70
2023-05-14T16:30:12.836Z,2.05
2023-05-14T16:32:41.462Z,2.25
2023-05-14T16:35:08.289Z,1.88
2023-05-14T16:37:34.742Z,5.18
2023-05-14T16:40:01.097Z,3.28
2023-05-14T16:42:27.511Z,2.53
2023-05-14T16:44:53.885Z,2.13
2023-05-14T16:47:20.254Z,3.20
2023-05-14T16:49:46.624Z,2.42
2023-05-14T16:52:13.018Z,3.00
2023-05-14T16:54:39.381Z,2.58
2023-05-14T16:57:05.976Z,1.30
2023-05-14T16:59:32.372Z,1.60
2023-05-14T17:01:58.868Z,1.40
2023-05-14T17:04:26.393Z,1.70
2023-05-14T17:06:52.876Z,1.23
2023-05-14T17:09:19.360Z,1.33
2023-05-14T17:11:45.853Z,1.25
2023-05-14T17:14:12.312Z,1.30
2023-05-14T17:16:40.388Z,2.35
2023-05-14T17:19:06.797Z,3.05
2023-05-14T17:21:33.254Z,1.73
2023-05-14T17:23:59.640Z,2.03
2023-05-14T17:26:26.305Z,13.43
2023-05-14T17:28:52.748Z,3.88
2023-05-14T17:31:19.193Z,1.98
2023-05-14T17:33:45.596Z,1.88
2023-05-14T17:36:12.109Z,1.60
2023-05-14T17:38:38.974Z,2.17
2023-05-14T17:41:05.378Z,1.88
2023-05-14T17:43:31.847Z,1.60
2023-05-14T17:45:58.685Z,1.33
2023-05-14T17:48:25.140Z,1.70
2023-05-14T17:50:52.001Z,1.60
2023-05-14T17:53:18.453Z,1.70
2023-05-14T17:55:45.341Z,1.63
2023-05-14T17:58:14.208Z,1.90
2023-05-14T18:00:41.337Z,1.98
2023-05-14T18:03:07.968Z,2.53
2023-05-14T18:05:34.844Z,2.53
2023-05-14T18:08:01.300Z,1.80
2023-05-14T18:10:29.497Z,2.42
2023-05-14T18:12:56.469Z,2.00
2023-05-14T18:15:25.547Z,1.63
2023-05-14T18:17:52.665Z,1.50
2023-05-14T18:20:19.503Z,2.10
2023-05-14T18:22:45.927Z,2.10
2023-05-14T18:25:12.843Z,2.08
2023-05-14T18:27:44.147Z,1.90
2023-05-14T18:30:13.038Z,2.03
2023-05-14T18:32:40.029Z,1.95
2023-05-14T18:35:08.202Z,4.43
2023-05-14T18:37:35.488Z,7.65
2023-05-14T18:40:04.524Z,2.75
2023-05-14T18:42:30.914Z,1.92
2023-05-14T18:44:57.358Z,2.25
2023-05-14T18:47:23.909Z,2.33
2023-05-14T18:49:54.716Z,2.80
2023-05-14T18:52:24.610Z,2.35
2023-05-14T18:54:51.002Z,2.40
2023-05-14T18:57:17.518Z,1.77
2023-05-14T18:59:43.925Z,1.70
2023-05-14T19:02:10.355Z,1.80
2023-05-14T19:04:50.578Z,1.77
2023-05-14T19:07:18.840Z,1.60
2023-05-14T19:09:45.336Z,1.65
2023-05-14T19:12:11.815Z,1.60
2023-05-14T19:14:38.216Z,1.80
2023-05-14T19:17:05.386Z,2.13
2023-05-14T19:19:31.827Z,2.25
2023-05-14T19:21:58.222Z,2.10
2023-05-14T19:24:24.776Z,4.80
2023-05-14T19:26:51.216Z,3.05
2023-05-14T19:29:17.614Z,2.42
2023-05-14T19:31:44.114Z,2.25
2023-05-14T19:34:10.756Z,2.22
2023-05-14T19:36:37.232Z,1.70
2023-05-14T19:39:03.770Z,1.88
2023-05-14T19:41:30.253Z,2.13
2023-05-14T19:43:56.600Z,1.80
2023-05-14T19:46:23.067Z,1.83
2023-05-14T19:48:49.520Z,1.63
2023-05-14T19:51:15.901Z,2.15
2023-05-14T19:53:42.410Z,1.90
2023-05-14T19:56:09.015Z,1.77
2023-05-14T19:58:35.454Z,2.30
2023-05-14T20:01:01.872Z,2.10
2023-05-14T20:03:28.405Z,1.80
2023-05-14T20:05:55.685Z,1.88
2023-05-14T20:08:22.317Z,1.85
2023-05-14T20:10:48.950Z,1.48
2023-05-14T20:13:15.495Z,1.90
2023-05-14T20:15:42.813Z,1.75
2023-05-14T20:18:09.504Z,1.67
2023-05-14T20:20:36.206Z,2.00
2023-05-14T20:23:02.649Z,2.05
2023-05-14T20:25:29.396Z,1.80
2023-05-14T20:27:55.937Z,1.77
2023-05-14T20:30:22.494Z,1.60
2023-05-14T20:32:49.124Z,1.90
2023-05-14T20:35:15.610Z,1.90
2023-05-14T20:37:42.083Z,1.77
2023-05-14T20:40:12.580Z,2.67
2023-05-14T20:42:39.202Z,2.80
2023-05-14T20:45:06.593Z,1.85
2023-05-14T20:47:34.155Z,2.05
2023-05-14T20:50:00.977Z,1.90
2023-05-14T20:52:27.544Z,1.80
2023-05-14T20:54:53.954Z,2.00
2023-05-14T20:57:20.460Z,2.42
2023-05-14T20:59:47.412Z,2.95
2023-05-14T21:02:14.038Z,2.45
2023-05-14T21:04:40.995Z,2.17
2023-05-14T21:07:07.699Z,2.38
2023-05-14T21:09:34.191Z,1.98
2023-05-14T21:12:00.715Z,2.58
2023-05-14T21:14:27.154Z,2.72
2023-05-14T21:17:02.276Z,2.80
2023-05-14T21:19:28.648Z,2.47
2023-05-14T21:21:55.113Z,2.30
2023-05-14T21:24:21.659Z,2.10
2023-05-14T21:26:48.104Z,2.38
2023-05-14T21:29:14.573Z,2.17
2023-05-14T21:31:41.068Z,2.50
2023-05-14T21:34:07.532Z,1.95
2023-05-14T21:36:34.090Z,2.22
2023-05-14T21:39:08.055Z,2.30
2023-05-14T21:41:34.466Z,2.30
2023-05-14T21:44:00.853Z,2.90
2023-05-14T21:46:28.794Z,2.13
2023-05-14T21:48:56.256Z,2.47
2023-05-14T21:51:22.928Z,2.03
2023-05-14T21:53:49.377Z,2.30
2023-05-14T21:56:15.792Z,2.42
2023-05-14T21:58:42.198Z,2.55
2023-05-14T22:01:09.029Z,2.40
2023-05-14T22:03:35.900Z,2.40
2023-05-14T22:06:02.429Z,1.77
2023-05-14T22:08:30.589Z,2.70
2023-05-14T22:10:56.989Z,2.22
2023-05-14T22:13:23.368Z,2.20
2023-05-14T22:15:51.365Z,2.92
2023-05-14T22:18:22.088Z,5.35
2023-05-14T22:20:48.419Z,4.05
2023-05-14T22:23:14.918Z,2.70
2023-05-14T22:25:41.356Z,2.63
2023-05-14T22:28:07.803Z,2.60
2023-05-14T22:30:34.211Z,2.35
2023-05-14T22:33:00.723Z,2.22
2023-05-14T22:35:27.448Z,2.20
2023-05-14T22:37:53.896Z,2.10
2023-05-14T22:40:20.416Z,2.90
2023-05-14T22:42:46.790Z,2.30
2023-05-14T22:45:13.279Z,2.30
2023-05-14T22:47:40.193Z,2.60
2023-05-14T22:50:11.485Z,2.22
2023-05-14T22:52:40.134Z,2.40
2023-05-14T22:55:07.466Z,2.05
2023-05-14T22:57:34.468Z,2.03
2023-05-14T23:00:00.979Z,2.38
2023-05-14T23:02:27.407Z,2.50
2023-05-14T23:04:53.907Z,2.42
2023-05-14T23:07:20.521Z,2.35
2023-05-14T23:09:46.901Z,2.42
2023-05-14T23:12:13.309Z,2.50
2023-05-14T23:14:39.666Z,2.50
2023-05-14T23:17:06.121Z,2.38
2023-05-14T23:19:32.543Z,2.25
2023-05-14T23:21:59.373Z,2.05
2023-05-14T23:24:26.152Z,2.50
2023-05-14T23:26:52.594Z,2.60
2023-05-14T23:29:18.998Z,2.40
2023-05-14T23:31:45.493Z,2.40
2023-05-14T23:34:11.953Z,2.20
2023-05-14T23:36:39.594Z,2.58
2023-05-14T23:39:05.994Z,2.42
2023-05-14T23:41:32.440Z,2.80
2023-05-14T23:43:58.795Z,2.72
2023-05-14T23:46:25.333Z,2.92
2023-05-14T23:48:52.096Z,2.33
2023-05-14T23:51:18.577Z,2.65
2023-05-14T23:53:44.926Z,2.47
2023-05-14T23:56:11.804Z,2.10
2023-05-14T23:58:38.284Z,3.47
